Time;durP1;ratioP1;P1;durP2;ratioP2;P2;SDS_P1;SDS_P2;PMS_P1;PMS_P2;Temp;Humidity;BMP_temperature;BMP_pressure;BME280_temperature;BME280_humidity;BME280_pressure;Samples;Min_cycle;Max_cycle;Signal;HPM_P1;HPM_P2
2023/01/31 00:00:38;;;;;;;14.23;2.72;;;5.10;99.90;;;;;;5080608;28;20216;-77
2023/01/31 00:03:35;;;;;;;23.30;3.47;;;4.00;99.90;;;;;;5094045;28;20105;-77
2023/01/31 00:06:24;;;;;;;21.92;3.08;;;4.00;99.90;;;;;;5098071;28;20755;-76
2023/01/31 00:08:51;;;;;;;24.90;3.03;;;4.70;99.90;;;;;;5085541;28;20035;-78
2023/01/31 00:11:18;;;;;;;20.42;3.15;;;4.00;99.90;;;;;;5062630;28;20042;-78
2023/01/31 00:13:45;;;;;;;17.42;3.58;;;4.20;99.90;;;;;;5091429;28;20218;-77
2023/01/31 00:19:50;;;;;;;16.50;4.32;;;4.10;99.90;;;;;;5001234;28;20217;-77
2023/01/31 00:22:52;;;;;;;27.50;4.57;;;3.80;99.90;;;;;;5065284;28;20077;-77
2023/01/31 00:25:18;;;;;;;14.52;2.30;;;4.00;99.90;;;;;;5074583;28;20082;-77
2023/01/31 00:27:46;;;;;;;16.95;2.83;;;4.10;99.90;;;;;;5079633;28;20363;-77
2023/01/31 00:30:12;;;;;;;12.43;2.40;;;3.80;99.90;;;;;;5096800;28;20031;-77
2023/01/31 00:32:38;;;;;;;18.52;2.97;;;4.00;99.90;;;;;;5075796;28;20046;-77
2023/01/31 00:35:04;;;;;;;16.83;2.60;;;4.00;99.90;;;;;;5097787;28;20023;-77
2023/01/31 00:37:29;;;;;;;18.17;4.10;;;4.00;99.90;;;;;;5064758;28;20082;-79
2023/01/31 00:39:55;;;;;;;23.65;4.03;;;5.00;99.90;;;;;;5105668;28;20028;-74
2023/01/31 00:42:21;;;;;;;24.73;3.95;;;4.00;99.90;;;;;;5081725;28;20100;-75
2023/01/31 00:44:46;;;;;;;19.35;2.72;;;3.90;99.90;;;;;;5088270;28;20055;-76
2023/01/31 00:47:12;;;;;;;14.20;2.53;;;4.00;99.90;;;;;;5076228;28;20081;-76
2023/01/31 00:49:38;;;;;;;22.70;3.40;;;4.60;99.90;;;;;;5082477;28;20129;-77
2023/01/31 00:52:04;;;;;;;25.98;4.55;;;3.80;99.90;;;;;;5065775;28;20046;-77
2023/01/31 00:54:29;;;;;;;19.05;2.95;;;4.00;99.90;;;;;;5091661;28;20032;-76
2023/01/31 00:56:55;;;;;;;16.20;3.15;;;3.80;99.90;;;;;;5073599;28;20032;-77
2023/01/31 00:59:21;;;;;;;15.07;2.72;;;4.00;99.90;;;;;;5055742;28;20059;-77
2023/01/31 01:04:52;;;;;;;18.55;3.47;;;3.80;99.90;;;;;;5097241;28;20035;-77
2023/01/31 01:07:18;;;;;;;14.93;2.35;;;3.80;99.90;;;;;;5056758;28;20024;-77
2023/01/31 01:09:43;;;;;;;12.60;2.42;;;3.80;99.90;;;;;;5079839;28;20036;-77
2023/01/31 01:12:09;;;;;;;24.98;3.22;;;4.00;99.90;;;;;;5086178;28;20102;-78
2023/01/31 01:14:35;;;;;;;15.15;3.03;;;4.70;99.90;;;;;;5090990;28;20032;-77
2023/01/31 01:17:01;;;;;;;15.00;3.67;;;3.90;99.90;;;;;;5088097;28;20059;-77
2023/01/31 01:19:26;;;;;;;15.20;2.55;;;4.00;99.90;;;;;;5069841;28;20092;-77
2023/01/31 01:21:54;;;;;;;14.70;2.08;;;3.70;99.90;;;;;;5099245;28;20028;-76
2023/01/31 01:24:19;;;;;;;13.85;3.78;;;3.90;99.90;;;;;;5098517;28;20032;-77
2023/01/31 01:26:45;;;;;;;12.05;2.13;;;4.00;99.90;;;;;;5093782;28;20321;-77
2023/01/31 01:29:11;;;;;;;15.43;3.17;;;3.60;99.90;;;;;;5065825;28;20031;-77
2023/01/31 01:32:19;;;;;;;25.65;4.10;;;4.80;99.90;;;;;;5071627;28;20357;-77
2023/01/31 01:34:44;;;;;;;20.00;3.30;;;3.50;99.90;;;;;;5053028;28;20110;-76
2023/01/31 01:37:18;;;;;;;19.77;3.22;;;3.30;99.90;;;;;;5070408;28;20706;-76
2023/01/31 01:39:53;;;;;;;14.63;2.83;;;3.80;99.90;;;;;;5076832;28;20334;-76
2023/01/31 01:42:20;;;;;;;;;;;3.40;99.90;;;;;;5079286;28;20247;-78
2023/01/31 01:44:57;;;;;;;13.10;2.60;;;3.30;99.90;;;;;;5087701;28;20093;-76
2023/01/31 01:47:33;;;;;;;12.40;2.40;;;3.10;99.90;;;;;;5080168;28;20353;-76
2023/01/31 01:50:11;;;;;;;15.32;2.42;;;3.20;99.90;;;;;;5087809;28;20043;-76
2023/01/31 01:52:45;;;;;;;15.05;3.58;;;3.30;99.90;;;;;;5094064;28;20031;-77
2023/01/31 01:55:36;;;;;;;9.57;2.25;;;3.10;99.90;;;;;;5104874;28;20294;-77
2023/01/31 01:58:14;;;;;;;19.73;3.45;;;3.40;99.90;;;;;;5084996;28;20199;-77
2023/01/31 02:00:39;;;;;;;20.95;4.05;;;3.30;99.90;;;;;;5104213;28;20024;-77
2023/01/31 02:03:07;;;;;;;20.17;4.10;;;3.30;99.90;;;;;;5085742;28;20097;-77
2023/01/31 02:05:40;;;;;;;14.50;3.22;;;3.20;99.90;;;;;;5074834;28;20067;-77
2023/01/31 02:08:06;;;;;;;9.98;2.35;;;3.40;99.90;;;;;;5077084;28;20073;-77
2023/01/31 02:10:43;;;;;;;16.70;2.83;;;3.80;99.90;;;;;;5071723;28;20127;-77
2023/01/31 02:13:10;;;;;;;17.83;2.97;;;4.00;99.90;;;;;;5094366;28;20050;-77
2023/01/31 02:15:44;;;;;;;20.38;3.20;;;3.20;99.90;;;;;;5101960;28;20088;-76
2023/01/31 02:18:10;;;;;;;17.23;3.28;;;3.30;99.90;;;;;;5080419;28;20072;-76
2023/01/31 02:20:42;;;;;;;17.85;3.00;;;3.50;99.90;;;;;;5085099;28;20050;-76
2023/01/31 02:23:29;;;;;;;16.23;3.25;;;3.30;99.90;;;;;;5091917;28;20352;-77
2023/01/31 02:26:03;;;;;;;12.98;3.08;;;3.40;99.90;;;;;;5092301;28;20467;-76
2023/01/31 02:28:38;;;;;;;17.38;4.50;;;3.50;99.90;;;;;;5081937;28;20039;-77
2023/01/31 02:31:34;;;;;;;15.48;3.20;;;3.40;99.90;;;;;;5084286;28;20111;-76
2023/01/31 02:34:31;;;;;;;14.00;2.88;;;3.60;99.90;;;;;;5101778;28;20103;-76
2023/01/31 02:37:15;;;;;;;11.32;2.38;;;3.50;99.90;;;;;;5085144;28;20039;-76
2023/01/31 02:40:21;;;;;;;16.45;3.15;;;3.50;99.90;;;;;;5087161;28;20043;-78
2023/01/31 02:43:16;;;;;;;11.05;2.05;;;3.80;99.90;;;;;;5022476;28;20059;-77
2023/01/31 02:46:14;;;;;;;23.13;2.78;;;3.60;99.90;;;;;;5090679;28;20048;-76
2023/01/31 02:48:48;;;;;;;14.63;2.88;;;3.80;99.90;;;;;;5080560;28;20092;-77
2023/01/31 02:51:21;;;;;;;14.13;2.47;;;3.90;99.90;;;;;;5086792;28;20059;-76
2023/01/31 02:54:13;;;;;;;13.20;2.65;;;3.90;99.90;;;;;;5089537;28;20031;-76
2023/01/31 02:56:42;;;;;;;12.90;2.85;;;3.60;99.90;;;;;;5090752;28;20367;-77
2023/01/31 02:59:18;;;;;;;12.85;1.80;;;3.60;99.90;;;;;;5100004;28;20043;-76
2023/01/31 03:01:49;;;;;;;21.00;2.97;;;3.70;99.90;;;;;;5086498;28;20063;-77
2023/01/31 03:04:15;;;;;;;17.90;4.78;;;3.60;99.90;;;;;;5080330;28;20034;-77
2023/01/31 03:07:12;;;;;;;15.73;2.63;;;4.00;99.90;;;;;;5084828;28;20023;-76
2023/01/31 03:09:53;;;;;;;16.27;3.20;;;4.00;99.90;;;;;;5084750;28;20290;-77
2023/01/31 03:12:52;;;;;;;18.40;2.35;;;3.80;99.90;;;;;;5102725;28;20077;-76
2023/01/31 03:18:43;;;;;;;13.27;2.20;;;4.20;99.90;;;;;;5091259;28;20094;-75
2023/01/31 03:21:15;;;;;;;15.02;2.70;;;4.30;99.90;;;;;;5084231;28;20023;-75
2023/01/31 03:23:45;;;;;;;12.73;1.60;;;4.30;99.90;;;;;;5103341;28;20434;-77
2023/01/31 03:26:11;;;;;;;16.35;2.67;;;4.40;99.90;;;;;;5102129;28;20023;-76
2023/01/31 03:28:41;;;;;;;14.25;3.15;;;4.00;99.90;;;;;;5102901;28;20055;-76
2023/01/31 03:31:25;;;;;;;15.63;2.35;;;4.10;99.90;;;;;;5103128;28;20028;-78
2023/01/31 03:34:12;;;;;;;12.40;2.23;;;4.40;99.90;;;;;;5073602;28;20098;-77
2023/01/31 03:36:44;;;;;;;9.52;2.33;;;4.30;99.90;;;;;;5096626;28;20098;-78
2023/01/31 03:39:34;;;;;;;17.55;2.63;;;4.40;99.90;;;;;;5101450;28;20023;-78
2023/01/31 03:42:14;;;;;;;12.98;2.40;;;4.30;99.90;;;;;;5078977;28;20098;-78
2023/01/31 03:44:40;;;;;;;15.52;2.30;;;4.40;99.90;;;;;;5099790;28;20483;-78
2023/01/31 03:47:16;;;;;;;10.45;2.22;;;4.30;99.90;;;;;;5071756;28;20044;-78
2023/01/31 03:49:44;;;;;;;11.05;2.88;;;4.20;99.90;;;;;;5076715;28;20095;-78
2023/01/31 03:52:15;;;;;;;16.85;2.83;;;4.40;99.90;;;;;;5081080;28;20040;-78
2023/01/31 03:54:47;;;;;;;12.13;2.30;;;4.10;99.90;;;;;;5076646;28;20350;-78
2023/01/31 03:57:19;;;;;;;19.73;2.60;;;4.10;99.90;;;;;;5063232;28;20059;-78
2023/01/31 03:59:48;;;;;;;15.10;2.20;;;4.40;99.90;;;;;;5089363;28;20032;-78
2023/01/31 04:02:15;;;;;;;14.43;2.65;;;4.10;99.90;;;;;;5094969;28;20536;-78
2023/01/31 04:04:53;;;;;;;13.20;2.58;;;4.40;99.90;;;;;;5078042;28;20031;-78
2023/01/31 04:07:19;;;;;;;16.70;2.28;;;4.30;99.90;;;;;;5098045;28;20036;-77
2023/01/31 04:09:45;;;;;;;14.02;2.63;;;4.40;99.90;;;;;;5081727;28;20165;-77
2023/01/31 04:12:49;;;;;;;15.00;2.65;;;4.30;99.90;;;;;;5073343;28;20036;-77
2023/01/31 04:15:42;;;;;;;19.35;2.95;;;4.40;99.90;;;;;;5091265;28;20036;-77
2023/01/31 04:18:11;;;;;;;22.20;2.75;;;5.70;99.90;;;;;;5050789;28;20044;-75
2023/01/31 04:20:36;;;;;;;14.07;4.38;;;4.40;99.90;;;;;;5074255;28;20109;-76
2023/01/31 04:23:03;;;;;;;16.17;2.53;;;4.60;99.90;;;;;;5069179;28;20064;-76
2023/01/31 04:25:28;;;;;;;17.35;2.90;;;4.40;99.90;;;;;;5091236;28;20069;-76
2023/01/31 04:27:54;;;;;;;12.90;2.20;;;4.30;99.90;;;;;;5060520;28;20031;-75
2023/01/31 04:30:20;;;;;;;18.15;2.70;;;4.40;99.90;;;;;;5071459;28;20047;-75
2023/01/31 04:32:46;;;;;;;13.98;3.05;;;4.70;99.90;;;;;;5064945;28;20032;-77
2023/01/31 04:35:12;;;;;;;15.95;2.90;;;4.70;99.90;;;;;;5074049;28;20126;-76
2023/01/31 04:37:37;;;;;;;14.27;2.60;;;4.50;99.90;;;;;;5071849;28;20082;-75
2023/01/31 04:40:04;;;;;;;15.77;2.55;;;4.90;99.90;;;;;;5088899;28;20361;-76
2023/01/31 04:42:30;;;;;;;17.80;4.28;;;4.80;99.90;;;;;;5059865;28;20050;-76
2023/01/31 04:44:56;;;;;;;23.73;3.55;;;4.70;99.90;;;;;;5064760;28;20319;-77
2023/01/31 04:47:21;;;;;;;18.52;3.15;;;4.90;99.90;;;;;;5075580;28;20051;-77
2023/01/31 04:49:47;;;;;;;16.92;2.67;;;5.10;99.90;;;;;;5089799;28;20074;-77
2023/01/31 04:52:13;;;;;;;15.45;3.13;;;4.60;99.90;;;;;;5053982;28;20044;-77
2023/01/31 04:54:38;;;;;;;18.02;3.53;;;4.90;99.90;;;;;;5053512;28;20043;-78
2023/01/31 04:57:04;;;;;;;20.10;3.47;;;5.20;99.90;;;;;;5095929;28;20039;-77
2023/01/31 04:59:30;;;;;;;22.10;4.00;;;5.30;99.90;;;;;;5093071;28;20228;-76
2023/01/31 05:02:22;;;;;;;15.48;2.70;;;5.10;99.90;;;;;;5061908;28;20143;-77
2023/01/31 05:04:47;;;;;;;15.77;3.10;;;3.90;99.90;;;;;;5090655;28;20176;-77
2023/01/31 05:07:13;;;;;;;18.23;3.88;;;5.40;99.90;;;;;;5079601;28;20058;-76
2023/01/31 05:09:42;;;;;;;20.52;3.38;;;5.30;99.90;;;;;;5048024;28;20215;-77
2023/01/31 05:12:10;;;;;;;16.55;2.97;;;5.00;99.90;;;;;;5084627;28;20055;-77
2023/01/31 05:14:36;;;;;;;15.82;3.08;;;4.90;99.90;;;;;;5079508;28;20039;-76
2023/01/31 05:17:14;;;;;;;19.45;3.17;;;4.90;99.90;;;;;;5057956;28;20055;-76
2023/01/31 05:19:42;;;;;;;19.90;2.95;;;5.20;99.90;;;;;;5081139;28;20067;-76
2023/01/31 05:22:08;;;;;;;13.85;3.00;;;5.20;99.90;;;;;;5076428;28;20111;-76
2023/01/31 05:24:33;;;;;;;15.35;4.20;;;5.00;99.90;;;;;;5055032;28;20077;-76
2023/01/31 05:27:00;;;;;;;18.77;3.40;;;5.50;99.90;;;;;;5096372;28;20034;-77
2023/01/31 05:29:31;;;;;;;19.90;3.60;;;5.50;99.90;;;;;;5094626;28;20032;-77
2023/01/31 05:32:00;;;;;;;22.00;3.85;;;5.10;99.90;;;;;;5097819;28;20051;-77
2023/01/31 05:34:29;;;;;;;22.80;4.32;;;5.20;99.90;;;;;;5079986;28;20047;-77
2023/01/31 05:36:55;;;;;;;24.00;3.75;;;5.70;99.90;;;;;;5076237;28;20044;-77
2023/01/31 05:39:21;;;;;;;23.48;4.10;;;5.20;99.90;;;;;;5074703;28;20036;-76
2023/01/31 05:41:47;;;;;;;19.25;4.10;;;5.20;99.90;;;;;;5097831;28;20028;-76
2023/01/31 05:44:15;;;;;;;18.67;3.65;;;5.30;99.90;;;;;;5097110;28;20048;-77
2023/01/31 05:46:40;;;;;;;16.73;4.05;;;5.50;99.90;;;;;;5079139;28;20093;-77
2023/01/31 05:49:06;;;;;;;18.70;4.07;;;5.90;99.90;;;;;;5078147;28;20028;-78
2023/01/31 05:51:32;;;;;;;17.67;3.78;;;5.90;99.90;;;;;;5047494;28;20085;-77
2023/01/31 05:53:58;;;;;;;24.55;4.13;;;6.00;99.90;;;;;;5092886;28;20039;-77
2023/01/31 05:56:23;;;;;;;23.42;4.60;;;5.90;99.90;;;;;;5078339;28;20038;-77
2023/01/31 05:58:50;;;;;;;24.10;4.03;;;5.80;99.90;;;;;;5097318;28;20035;-78
2023/01/31 06:01:17;;;;;;;20.92;4.20;;;5.50;99.90;;;;;;5060961;28;20219;-78
2023/01/31 06:03:43;;;;;;;19.60;3.78;;;5.80;99.90;;;;;;5096367;28;20339;-78
2023/01/31 06:06:09;;;;;;;19.10;4.05;;;5.60;99.90;;;;;;5071397;28;20032;-77
2023/01/31 06:08:34;;;;;;;19.20;4.18;;;5.70;99.90;;;;;;5076584;28;20044;-78
2023/01/31 06:11:03;;;;;;;20.48;5.00;;;5.60;99.90;;;;;;5065020;28;20123;-77
2023/01/31 06:15:13;;;;;;;20.33;4.28;;;5.70;99.90;;;;;;5053703;28;20036;-77
2023/01/31 06:17:57;;;;;;;16.23;3.63;;;6.00;99.90;;;;;;5023654;28;20060;-76
2023/01/31 06:20:32;;;;;;;23.15;5.05;;;6.00;99.90;;;;;;4991040;28;20218;-77
2023/01/31 06:22:59;;;;;;;21.50;3.45;;;5.90;99.90;;;;;;4990813;28;20029;-78
2023/01/31 06:25:25;;;;;;;23.23;4.53;;;6.10;99.90;;;;;;5018759;28;20048;-77
2023/01/31 06:27:51;;;;;;;18.95;4.20;;;5.70;99.90;;;;;;5016755;28;20053;-77
2023/01/31 06:30:17;;;;;;;16.23;3.65;;;5.60;99.90;;;;;;5056808;28;20050;-77
2023/01/31 06:32:43;;;;;;;21.70;4.75;;;5.70;99.90;;;;;;5092477;28;20028;-77
2023/01/31 06:35:09;;;;;;;24.70;4.82;;;6.00;99.90;;;;;;5081289;28;20051;-77
2023/01/31 06:37:34;;;;;;;17.83;4.00;;;5.80;99.90;;;;;;5082610;28;20039;-77
2023/01/31 06:40:00;;;;;;;16.17;3.78;;;5.80;99.90;;;;;;5062857;28;20383;-76
2023/01/31 06:42:26;;;;;;;22.48;4.78;;;5.80;99.90;;;;;;5061560;28;20120;-78
2023/01/31 06:44:51;;;;;;;16.50;4.30;;;6.00;99.90;;;;;;5062057;28;20055;-76
2023/01/31 06:47:18;;;;;;;15.02;3.72;;;5.80;99.90;;;;;;5064411;28;20023;-77
2023/01/31 06:49:44;;;;;;;16.10;3.90;;;5.80;99.90;;;;;;5083922;28;20071;-76
2023/01/31 06:52:10;;;;;;;16.42;4.50;;;6.00;99.90;;;;;;5080845;28;20035;-77
2023/01/31 06:54:35;;;;;;;17.48;4.18;;;5.80;99.90;;;;;;5100837;28;20237;-77
2023/01/31 06:57:01;;;;;;;17.38;3.58;;;6.10;99.90;;;;;;5084898;28;20470;-77
2023/01/31 06:59:27;;;;;;;22.35;5.20;;;5.70;99.90;;;;;;5061713;28;20085;-76
2023/01/31 07:01:52;;;;;;;15.00;4.35;;;6.00;99.90;;;;;;5078333;28;20058;-74
2023/01/31 07:04:24;;;;;;;27.20;4.13;;;5.90;99.90;;;;;;5059415;28;20059;-78
2023/01/31 07:06:50;;;;;;;15.27;3.20;;;5.70;99.90;;;;;;5062777;28;20203;-76
2023/01/31 07:09:15;;;;;;;16.42;3.20;;;5.90;99.90;;;;;;5079017;28;20313;-77
2023/01/31 07:11:41;;;;;;;15.65;3.40;;;6.00;99.90;;;;;;5094760;28;20033;-77
2023/01/31 07:14:07;;;;;;;18.20;3.58;;;5.80;99.90;;;;;;5058864;28;20054;-77
2023/01/31 07:16:33;;;;;;;17.17;3.22;;;5.70;99.90;;;;;;5063393;28;20020;-76
2023/01/31 07:19:01;;;;;;;15.60;3.20;;;6.00;99.90;;;;;;5079934;28;20125;-76
2023/01/31 07:21:28;;;;;;;15.55;3.50;;;6.00;99.90;;;;;;5059863;28;20180;-77
2023/01/31 07:23:54;;;;;;;16.02;3.67;;;6.10;99.90;;;;;;5061499;28;20107;-77
2023/01/31 07:26:19;;;;;;;17.52;3.55;;;6.10;99.90;;;;;;5080436;28;20901;-78
2023/01/31 07:28:45;;;;;;;21.25;4.70;;;5.80;99.90;;;;;;5064228;28;20032;-77
2023/01/31 07:31:12;;;;;;;15.90;3.85;;;5.90;99.90;;;;;;5046298;28;20031;-77
2023/01/31 07:46:17;;;;;;;;;;;;;;;;;;;;;
2023/01/31 07:53:41;;;;;;;;;;;;;;;;;;;;;
2023/01/31 08:12:54;;;;;;;11.05;3.17;;;6.30;99.90;;;;;;4775466;30;20462;-79
2023/01/31 08:15:49;;;;;;;;;;;;;;;;;;;;;
2023/01/31 08:18:34;;;;;;;14.68;2.90;;;5.50;99.90;;;;;;4941365;28;20053;-79
2023/01/31 08:25:41;;;;;;;11.43;2.55;;;5.60;99.90;;;;;;4903380;29;20094;-79
2023/01/31 08:28:17;;;;;;;13.13;3.33;;;6.40;99.90;;;;;;4929543;29;20082;-79
2023/01/31 08:31:46;;;;;;;17.60;3.58;;;6.60;99.90;;;;;;4972771;28;20161;-78
2023/01/31 08:42:21;;;;;;;15.40;3.00;;;6.40;99.90;;;;;;4976238;28;20053;-76
2023/01/31 08:48:58;;;;;;;10.00;2.67;;;5.80;99.90;;;;;;5014460;28;20037;-78
2023/01/31 09:03:21;;;;;;;12.27;3.10;;;5.90;99.90;;;;;;4812457;29;20049;-78
2023/01/31 09:06:41;;;;;;;17.05;2.90;;;6.80;99.90;;;;;;4815712;29;20269;-77
2023/01/31 09:10:06;;;;;;;13.63;2.90;;;6.50;99.90;;;;;;4812528;29;20031;-77
2023/01/31 09:13:31;;;;;;;;;;;;;;;;;;;;;
2023/01/31 09:16:35;;;;;;;12.82;2.70;;;7.20;99.90;;;;;;4776269;30;20043;-79
2023/01/31 09:22:28;;;;;;;;;;;6.70;99.90;;;;;;4971884;28;20038;-76
2023/01/31 09:24:57;;;;;;;18.73;4.30;;;6.10;99.90;;;;;;5005039;28;19921;-77
2023/01/31 09:31:27;;;;;;;10.30;3.22;;;6.50;99.90;;;;;;5010311;28;20037;-76
2023/01/31 09:34:38;;;;;;;15.60;2.72;;;6.70;99.90;;;;;;5002529;28;20063;-75
2023/01/31 09:37:45;;;;;;;20.40;4.25;;;7.00;99.90;;;;;;5036677;28;20078;-77
2023/01/31 09:40:25;;;;;;;15.15;2.80;;;6.70;99.90;;;;;;5060686;28;20070;-76
2023/01/31 09:42:53;;;;;;;14.18;3.50;;;7.60;99.90;;;;;;5079991;28;20075;-77
2023/01/31 09:45:53;;;;;;;16.50;2.90;;;7.10;99.90;;;;;;5059231;28;20086;-78
2023/01/31 10:00:40;;;;;;;;;;;;;;;;;;;;;
2023/01/31 10:03:56;;;;;;;;;;;;;;;;;;;;;
2023/01/31 10:06:54;;;;;;;13.00;3.35;;;7.20;99.90;;;;;;4862590;29;20320;-78
2023/01/31 10:09:36;;;;;;;10.70;2.70;;;6.90;99.90;;;;;;4912473;28;20055;-76
2023/01/31 10:12:49;;;;;;;15.00;3.22;;;7.20;99.90;;;;;;4983670;28;20054;-76
2023/01/31 10:19:53;;;;;;;11.60;3.28;;;7.30;99.90;;;;;;4991119;28;20038;-76
2023/01/31 10:23:03;;;;;;;18.58;4.57;;;7.20;99.90;;;;;;5042885;28;20032;-76
2023/01/31 10:29:13;;;;;;;16.63;3.83;;;6.50;99.90;;;;;;5048179;28;20045;-78
2023/01/31 10:31:57;;;;;;;22.83;3.75;;;7.10;99.90;;;;;;5059873;28;20063;-76
2023/01/31 10:34:37;;;;;;;15.43;2.55;;;7.00;99.90;;;;;;5042693;28;20037;-76
2023/01/31 10:37:36;;;;;;;11.35;3.38;;;7.10;99.90;;;;;;5059935;28;20033;-76
2023/01/31 10:40:36;;;;;;;13.07;2.90;;;7.00;99.90;;;;;;5058905;28;20055;-76
2023/01/31 10:47:15;;;;;;;19.23;4.43;;;7.40;99.90;;;;;;5018227;28;20041;-78
2023/01/31 10:49:49;;;;;;;9.13;2.72;;;7.30;99.90;;;;;;5005090;28;20029;-78
2023/01/31 10:53:03;;;;;;;16.60;3.22;;;6.60;99.90;;;;;;5004794;28;20493;-76
2023/01/31 10:55:44;;;;;;;11.75;3.13;;;6.90;99.90;;;;;;5005389;28;20516;-76
2023/01/31 10:58:22;;;;;;;11.27;2.28;;;6.90;99.90;;;;;;5005421;28;20383;-76
2023/01/31 11:00:51;;;;;;;11.70;3.42;;;7.00;99.90;;;;;;5021729;28;20045;-76
2023/01/31 11:03:17;;;;;;;11.65;2.67;;;7.60;99.90;;;;;;5025486;28;20230;-77
2023/01/31 11:06:07;;;;;;;;;;;;;;;;;;;;;
2023/01/31 11:09:08;;;;;;;15.40;2.70;;;6.30;99.90;;;;;;5058389;28;20319;-76
2023/01/31 11:15:39;;;;;;;15.70;3.50;;;6.70;99.90;;;;;;5016756;28;20100;-76
2023/01/31 11:19:19;;;;;;;;;;;;;;;;;;;;;
2023/01/31 11:25:50;;;;;;;13.10;3.00;;;6.80;99.90;;;;;;4901697;29;20421;-77
2023/01/31 11:28:38;;;;;;;15.57;3.00;;;7.20;99.90;;;;;;4887618;29;20173;-77
2023/01/31 11:31:51;;;;;;;;;;;;;;;;;;;;;
2023/01/31 11:34:36;;;;;;;16.77;3.85;;;7.80;99.90;;;;;;4951273;28;20061;-76
2023/01/31 11:37:16;;;;;;;21.63;3.35;;;7.90;99.90;;;;;;5058090;28;20108;-76
2023/01/31 11:40:26;;;;;;;20.40;4.35;;;7.90;99.90;;;;;;5042031;28;20078;-75
2023/01/31 11:43:06;;;;;;;17.80;3.42;;;7.80;99.90;;;;;;5041452;28;20339;-77
2023/01/31 11:45:43;;;;;;;14.50;3.45;;;7.50;99.90;;;;;;5041893;28;20057;-76
2023/01/31 11:52:56;;;;;;;15.85;4.03;;;7.30;99.90;;;;;;5006740;28;20372;-77
2023/01/31 12:09:59;;;;;;;18.25;3.78;;;8.90;99.90;;;;;;4958504;29;20091;-78
2023/01/31 12:12:34;;;;;;;17.63;3.25;;;7.90;99.90;;;;;;4942308;29;20226;-76
2023/01/31 12:15:14;;;;;;;20.23;5.40;;;7.60;99.90;;;;;;4942823;29;20046;-77
2023/01/31 12:17:45;;;;;;;25.50;4.53;;;8.00;99.90;;;;;;5067081;28;20044;-78
2023/01/31 12:20:55;;;;;;;21.58;3.33;;;8.00;99.90;;;;;;5061883;28;20364;-77
2023/01/31 12:24:13;;;;;;;18.15;3.47;;;8.50;99.90;;;;;;5073737;28;20369;-76
2023/01/31 12:27:39;;;;;;;16.83;3.10;;;8.40;99.90;;;;;;5061835;28;20071;-75
2023/01/31 12:30:59;;;;;;;18.40;4.30;;;8.10;99.90;;;;;;5076570;28;20064;-77
2023/01/31 12:33:55;;;;;;;12.68;3.10;;;8.00;99.90;;;;;;4964658;28;20046;-78
2023/01/31 12:36:36;;;;;;;19.00;3.42;;;8.30;99.90;;;;;;5039015;28;20124;-75
2023/01/31 12:40:21;;;;;;;;;;;;;;;;;;;;;
2023/01/31 12:46:58;;;;;;;16.42;3.38;;;8.30;99.90;;;;;;5011431;28;20041;-78
2023/01/31 12:52:44;;;;;;;14.18;3.58;;;8.40;99.90;;;;;;5026053;28;20052;-78
2023/01/31 13:06:51;;;;;;;13.77;3.20;;;8.50;99.90;;;;;;4945985;28;20186;-77
2023/01/31 13:09:37;;;;;;;21.23;4.07;;;8.60;99.90;;;;;;4945465;28;20122;-77
2023/01/31 13:16:25;;;;;;;;;;;;;;;;;;;;;
2023/01/31 13:19:02;;;;;;;16.83;3.63;;;8.60;99.90;;;;;;5036838;28;20049;-78
2023/01/31 13:21:46;;;;;;;15.65;3.80;;;8.50;99.90;;;;;;5036959;28;20037;-78
2023/01/31 13:27:37;;;;;;;17.15;2.97;;;9.70;99.90;;;;;;4987981;28;20033;-79
2023/01/31 13:30:18;;;;;;;14.05;3.10;;;8.30;99.90;;;;;;5020600;28;20037;-79
2023/01/31 13:33:41;;;;;;;12.05;2.83;;;8.40;99.90;;;;;;5036550;28;20039;-78
2023/01/31 13:36:27;;;;;;;14.95;3.05;;;7.70;99.90;;;;;;4968734;28;20574;-77
2023/01/31 13:38:59;;;;;;;13.13;3.42;;;8.00;99.90;;;;;;4977547;28;20106;-76
2023/01/31 13:46:05;;;;;;;11.82;3.22;;;9.10;99.90;;;;;;4847730;29;20074;-79
2023/01/31 13:49:01;;;;;;;14.73;2.72;;;8.60;99.90;;;;;;4860347;29;20053;-77
2023/01/31 13:52:05;;;;;;;14.38;3.15;;;7.30;99.90;;;;;;4991887;28;20048;-77
2023/01/31 13:54:42;;;;;;;14.90;3.67;;;7.30;99.90;;;;;;5002985;28;20040;-78
2023/01/31 13:57:50;;;;;;;20.75;3.60;;;8.50;99.90;;;;;;4989423;28;20045;-76
2023/01/31 14:01:06;;;;;;;8.38;3.00;;;8.40;99.90;;;;;;4988317;28;20049;-76
2023/01/31 14:04:14;;;;;;;14.07;3.92;;;8.50;99.90;;;;;;4965220;28;20038;-76
2023/01/31 14:06:55;;;;;;;13.15;3.40;;;9.70;99.90;;;;;;4972541;28;20120;-76
2023/01/31 14:09:43;;;;;;;11.05;3.08;;;8.40;99.90;;;;;;5004214;28;20137;-76
2023/01/31 14:12:09;;;;;;;16.50;3.55;;;8.60;99.90;;;;;;5030705;28;20107;-77
2023/01/31 14:14:40;;;;;;;19.42;3.20;;;8.60;99.90;;;;;;5022919;28;20029;-76
2023/01/31 14:17:31;;;;;;;14.68;3.90;;;8.60;99.90;;;;;;5038825;28;20033;-78
2023/01/31 14:20:53;;;;;;;15.88;3.40;;;8.40;99.90;;;;;;5059553;28;20114;-78
2023/01/31 14:24:07;;;;;;;;;;;;;;;;;;;;;
2023/01/31 14:26:53;;;;;;;;;;;;;;;;;;;;;
2023/01/31 14:29:40;;;;;;;12.63;2.78;;;8.40;99.90;;;;;;5059158;28;20035;-77
2023/01/31 14:32:14;;;;;;;17.17;3.05;;;7.20;99.90;;;;;;5042945;28;20040;-77
2023/01/31 14:35:12;;;;;;;15.23;3.00;;;8.40;99.90;;;;;;5058822;28;20243;-78
2023/01/31 14:38:49;;;;;;;;;;;;;;;;;;;;;
2023/01/31 14:41:32;;;;;;;13.25;2.75;;;9.10;99.90;;;;;;5055877;28;20532;-77
2023/01/31 14:44:47;;;;;;;;;;;;;;;;;;;;;
2023/01/31 14:47:47;;;;;;;10.77;3.35;;;8.10;99.90;;;;;;5038013;28;20136;-77
2023/01/31 14:51:16;;;;;;;;;;;;;;;;;;;;;
2023/01/31 14:54:36;;;;;;;12.43;2.95;;;8.20;99.90;;;;;;5060445;28;20040;-77
2023/01/31 14:57:38;;;;;;;12.38;2.72;;;8.20;99.90;;;;;;5043063;28;20033;-78
2023/01/31 15:00:13;;;;;;;14.20;3.63;;;7.10;99.90;;;;;;5035765;28;20043;-78
2023/01/31 15:03:26;;;;;;;14.32;3.40;;;8.10;99.90;;;;;;5031388;28;20041;-77
2023/01/31 15:13:00;;;;;;;15.40;3.10;;;7.90;99.90;;;;;;5000157;28;20030;-77
2023/01/31 15:15:31;;;;;;;21.45;3.45;;;8.00;99.90;;;;;;5039109;28;20366;-76
2023/01/31 15:21:08;;;;;;;15.95;2.85;;;8.00;99.90;;;;;;5003204;28;20355;-76
2023/01/31 15:23:49;;;;;;;16.23;3.80;;;7.80;99.90;;;;;;5005387;28;20264;-76
2023/01/31 15:26:41;;;;;;;19.20;4.43;;;7.70;99.90;;;;;;5006476;28;20045;-77
2023/01/31 15:29:14;;;;;;;17.58;3.20;;;7.70;99.90;;;;;;5006570;28;20029;-77
2023/01/31 15:31:45;;;;;;;19.75;3.30;;;7.60;99.90;;;;;;5021231;28;20025;-77
2023/01/31 15:40:31;;;;;;;14.85;2.90;;;7.60;99.90;;;;;;5047934;28;20355;-77
2023/01/31 15:43:23;;;;;;;25.95;3.53;;;7.50;99.90;;;;;;5033798;28;20120;-78
2023/01/31 15:46:24;;;;;;;16.75;3.13;;;7.50;99.90;;;;;;5060179;28;20060;-77
2023/01/31 15:52:50;;;;;;;;;;;;;;;;;;;;;
2023/01/31 15:59:42;;;;;;;;;;;;;;;;;;;;;
2023/01/31 16:03:18;;;;;;;;;;;;;;;;;;;;;
2023/01/31 16:06:33;;;;;;;16.52;3.33;;;6.60;99.90;;;;;;4940306;29;20073;-77
2023/01/31 16:09:04;;;;;;;25.02;4.93;;;6.10;99.90;;;;;;4924330;29;20326;-76
2023/01/31 16:11:55;;;;;;;19.63;4.43;;;7.00;99.90;;;;;;4956389;29;20046;-78
2023/01/31 16:25:20;;;;;;;23.20;3.90;;;7.30;99.90;;;;;;4906794;28;20121;-78
2023/01/31 16:27:54;;;;;;;25.40;4.47;;;6.80;99.90;;;;;;5002922;28;20117;-77
2023/01/31 16:30:46;;;;;;;28.38;4.43;;;6.90;99.90;;;;;;5056257;28;20036;-78
2023/01/31 16:33:30;;;;;;;24.15;4.63;;;5.70;99.90;;;;;;5061945;28;20040;-77
2023/01/31 16:43:49;;;;;;;23.88;3.97;;;6.40;99.90;;;;;;5002020;28;20099;-78
2023/01/31 16:47:10;;;;;;;15.98;3.38;;;6.50;99.90;;;;;;4984386;28;20053;-76
2023/01/31 16:49:42;;;;;;;20.50;3.50;;;5.80;99.90;;;;;;5024697;28;20049;-77
2023/01/31 16:52:30;;;;;;;16.92;3.70;;;5.60;99.90;;;;;;5041372;28;20226;-77
2023/01/31 16:55:30;;;;;;;;;;;;;;;;;;;;;
2023/01/31 16:59:16;;;;;;;12.85;3.00;;;6.40;99.90;;;;;;4997385;28;20042;-76
2023/01/31 17:01:42;;;;;;;20.95;5.43;;;5.30;99.90;;;;;;4980631;28;20026;-75
2023/01/31 17:04:11;;;;;;;14.38;3.38;;;6.30;99.90;;;;;;5010489;28;20103;-76
2023/01/31 17:06:39;;;;;;;21.55;3.47;;;6.30;99.90;;;;;;5041348;28;20079;-76
2023/01/31 17:09:07;;;;;;;15.07;3.20;;;6.30;99.90;;;;;;5058138;28;20037;-75
2023/01/31 17:11:33;;;;;;;20.45;3.72;;;6.30;99.90;;;;;;5057798;28;20407;-76
2023/01/31 17:13:59;;;;;;;24.50;4.07;;;6.30;99.90;;;;;;5057897;28;20037;-76
2023/01/31 17:16:25;;;;;;;17.15;4.13;;;6.30;99.90;;;;;;5041463;28;20288;-76
2023/01/31 17:18:52;;;;;;;20.70;3.65;;;6.30;99.90;;;;;;5044195;28;20029;-76
2023/01/31 17:21:23;;;;;;;18.85;3.63;;;6.30;99.90;;;;;;5078113;28;20033;-75
2023/01/31 17:23:49;;;;;;;19.98;3.45;;;6.30;99.90;;;;;;5059954;28;20044;-75
2023/01/31 17:26:17;;;;;;;24.35;3.67;;;6.30;99.90;;;;;;5076249;28;20116;-77
2023/01/31 17:28:43;;;;;;;12.27;3.55;;;6.20;99.90;;;;;;5076564;28;20029;-74
2023/01/31 17:31:23;;;;;;;21.83;3.88;;;6.20;99.90;;;;;;5061650;28;20248;-76
2023/01/31 17:33:50;;;;;;;20.00;3.38;;;6.30;99.90;;;;;;5060809;28;20405;-69
2023/01/31 17:36:16;;;;;;;17.83;3.72;;;6.30;99.90;;;;;;5077774;28;20040;-75
2023/01/31 17:38:42;;;;;;;21.33;4.03;;;6.30;99.90;;;;;;5060504;28;20099;-76